EKRK/RKE METAR and TAF weather

Enter ICAO airport designator
Station Type Date Time Source
EKRK METAR 2021/03/02 13:50 UTC NOAA

EKRK 021350Z AUTO 29006KT 260V320 9999 OVC005/// 03/02 Q1033


Station Type Date Time Source
EKRK Decoded METAR 2021/03/02 13:50 UTC NOAA

Koebenhavn / Roskilde, Denmark (EKRK) 55-35N 012-08E 44M
Mar 02, 2021 - 08:50 AM EST / 2021.03.02 1350 UTC
Wind: from the WNW (290 degrees) at 7 MPH (6 KT) (direction variable):0
Visibility: greater than 7 mile(s):0
Sky conditions: overcast
Temperature: 37 F (3 C)
Dew Point: 35 F (2 C)
Relative Humidity: 93%
Pressure (altimeter): 30.50 in. Hg (1033 hPa)
ob: EKRK 021350Z AUTO 29006KT 260V320 9999 OVC005/// 03/02 Q1033
cycle: 14

Station Type Date Time Source
EKRK TAF 2020/10/13 06:33 UTC NOAA

TAF EKRK 130526Z 1306/1415 09004KT 0200 FG VV001
TEMPO 1306/1307 6000 NSW NSC
BECMG 1307/1309 9999 NSW FEW020

Example: see airport list